createdAt,value
2022-10-09T00:00:56.597Z,9.20
2022-10-09T00:01:56.593Z,9.23
2022-10-09T00:02:56.566Z,9.23
2022-10-09T00:03:56.570Z,9.22
2022-10-09T00:04:56.623Z,9.22
2022-10-09T00:05:56.544Z,9.20
2022-10-09T00:06:56.555Z,9.19
2022-10-09T00:07:56.521Z,9.19
2022-10-09T00:08:56.508Z,9.17
2022-10-09T00:09:56.587Z,9.16
2022-10-09T00:10:56.777Z,9.15
2022-10-09T00:11:56.453Z,9.13
2022-10-09T00:12:56.503Z,9.15
2022-10-09T00:13:56.420Z,9.13
2022-10-09T00:14:56.413Z,9.10
2022-10-09T00:15:56.428Z,9.10
2022-10-09T00:16:56.428Z,9.10
2022-10-09T00:17:56.380Z,9.10
2022-10-09T00:18:56.351Z,9.10
2022-10-09T00:19:56.350Z,9.08
2022-10-09T00:20:56.331Z,9.04
2022-10-09T00:21:56.322Z,9.03
2022-10-09T00:22:56.302Z,9.04
2022-10-09T00:23:56.306Z,9.04
2022-10-09T00:24:56.272Z,9.03
2022-10-09T00:25:56.300Z,9.03
2022-10-09T00:26:56.285Z,9.03
2022-10-09T00:27:56.258Z,9.04
2022-10-09T00:28:56.295Z,9.03
2022-10-09T00:29:56.234Z,9.00
2022-10-09T00:30:56.251Z,9.01
2022-10-09T00:31:56.206Z,9.00
2022-10-09T00:32:56.164Z,8.97
2022-10-09T00:33:56.159Z,9.00
2022-10-09T00:34:56.149Z,8.97
2022-10-09T00:35:56.147Z,8.96
2022-10-09T00:36:56.135Z,8.96
2022-10-09T00:37:56.109Z,8.96
2022-10-09T00:38:56.090Z,8.97
2022-10-09T00:39:56.085Z,8.97
2022-10-09T00:40:56.075Z,8.98
2022-10-09T00:41:56.064Z,8.97
2022-10-09T00:42:56.034Z,8.96
2022-10-09T00:43:56.026Z,8.94
2022-10-09T00:44:56.016Z,8.94
2022-10-09T00:45:56.118Z,8.93
2022-10-09T00:46:55.995Z,8.89
2022-10-09T00:47:55.961Z,8.89
2022-10-09T00:48:55.953Z,8.91
2022-10-09T00:49:55.943Z,8.91
2022-10-09T00:50:55.943Z,8.89
2022-10-09T00:51:55.924Z,8.88
2022-10-09T00:52:55.899Z,8.86
2022-10-09T00:53:55.899Z,8.86
2022-10-09T00:54:57.321Z,8.88
2022-10-09T00:55:55.891Z,8.88
2022-10-09T00:56:55.842Z,8.85
2022-10-09T00:57:55.841Z,8.85
2022-10-09T00:58:55.822Z,8.83
2022-10-09T00:59:55.801Z,8.86
2022-10-09T01:00:55.855Z,8.86
2022-10-09T01:01:55.978Z,8.88
2022-10-09T01:02:55.861Z,8.91
2022-10-09T01:03:55.770Z,8.88
2022-10-09T01:04:55.761Z,8.85
2022-10-09T01:05:55.801Z,8.85
2022-10-09T01:06:55.721Z,8.85
2022-10-09T01:07:55.698Z,8.86
2022-10-09T01:08:55.679Z,8.82
2022-10-09T01:09:55.689Z,8.82
2022-10-09T01:10:55.679Z,8.82
2022-10-09T01:11:55.649Z,8.82
2022-10-09T01:12:55.668Z,8.82
2022-10-09T01:13:55.635Z,8.79
2022-10-09T01:14:55.629Z,8.78
2022-10-09T01:15:55.733Z,8.76
2022-10-09T01:16:55.586Z,8.76
2022-10-09T01:17:55.567Z,8.76
2022-10-09T01:18:55.557Z,8.78
2022-10-09T01:19:55.545Z,8.75
2022-10-09T01:20:55.548Z,8.76
2022-10-09T01:21:55.520Z,8.78
2022-10-09T01:22:55.527Z,8.76
2022-10-09T01:23:55.495Z,8.76
2022-10-09T01:24:55.474Z,8.75
2022-10-09T01:25:55.624Z,8.76
2022-10-09T01:26:55.453Z,8.71
2022-10-09T01:27:55.445Z,8.71
2022-10-09T01:28:55.417Z,8.73
2022-10-09T01:29:55.403Z,8.73
2022-10-09T01:30:55.446Z,8.73
2022-10-09T01:31:55.394Z,8.71
2022-10-09T01:32:55.393Z,8.73
2022-10-09T01:33:55.371Z,8.70
2022-10-09T01:34:55.364Z,8.70
2022-10-09T01:35:55.662Z,8.70
2022-10-09T01:36:55.334Z,8.70
2022-10-09T01:37:55.342Z,8.70
2022-10-09T01:38:55.330Z,8.68
2022-10-09T01:39:55.312Z,8.65
2022-10-09T01:40:55.299Z,8.65
2022-10-09T01:41:55.272Z,8.64
2022-10-09T01:42:55.260Z,8.63
2022-10-09T01:43:55.251Z,8.64
2022-10-09T01:44:55.241Z,8.63
2022-10-09T01:45:55.644Z,8.63
2022-10-09T01:46:55.202Z,8.63
2022-10-09T01:47:55.198Z,8.61
2022-10-09T01:48:55.201Z,8.60
2022-10-09T01:49:55.330Z,8.58
2022-10-09T01:50:55.179Z,8.60
2022-10-09T01:51:55.148Z,8.60
2022-10-09T01:52:55.159Z,8.60
2022-10-09T01:53:55.177Z,8.61
2022-10-09T01:54:55.128Z,8.60
2022-10-09T01:55:55.588Z,8.58
2022-10-09T01:56:55.099Z,8.57
2022-10-09T01:57:55.095Z,8.60
2022-10-09T01:58:55.080Z,8.60
2022-10-09T01:59:55.067Z,8.60
2022-10-09T02:00:55.057Z,8.57
2022-10-09T02:01:55.187Z,8.57
2022-10-09T02:02:55.076Z,8.55
2022-10-09T02:03:54.987Z,8.54
2022-10-09T02:04:54.976Z,8.55
2022-10-09T02:05:54.973Z,8.57
2022-10-09T02:06:54.946Z,8.55
2022-10-09T02:07:54.938Z,8.50
2022-10-09T02:08:54.922Z,8.47
2022-10-09T02:09:55.796Z,8.46
2022-10-09T02:10:54.921Z,8.45
2022-10-09T02:11:54.883Z,8.42
2022-10-09T02:12:54.886Z,8.42
2022-10-09T02:13:54.860Z,8.40
2022-10-09T02:14:54.854Z,8.40
2022-10-09T02:15:54.892Z,8.37
2022-10-09T02:16:54.823Z,8.37
2022-10-09T02:17:54.812Z,8.40
2022-10-09T02:18:54.802Z,8.40
2022-10-09T02:19:54.785Z,8.39
2022-10-09T02:20:54.779Z,8.37
2022-10-09T02:21:54.808Z,8.36
2022-10-09T02:22:54.752Z,8.37
2022-10-09T02:23:54.731Z,8.37
2022-10-09T02:24:54.733Z,8.40
2022-10-09T02:25:54.719Z,8.39
2022-10-09T02:26:54.704Z,8.40
2022-10-09T02:27:54.701Z,8.40
2022-10-09T02:28:54.715Z,8.42
2022-10-09T02:29:54.670Z,8.42
2022-10-09T02:30:54.737Z,8.40
2022-10-09T02:31:54.657Z,8.40
2022-10-09T02:32:54.641Z,8.40
2022-10-09T02:33:54.611Z,8.37
2022-10-09T02:34:54.612Z,8.36
2022-10-09T02:35:54.598Z,8.36
2022-10-09T02:36:54.589Z,8.34
2022-10-09T02:37:54.569Z,8.31
2022-10-09T02:38:54.557Z,8.28
2022-10-09T02:39:54.560Z,8.29
2022-10-09T02:40:54.519Z,8.28
2022-10-09T02:41:54.517Z,8.29
2022-10-09T02:42:54.518Z,8.28
2022-10-09T02:43:54.486Z,8.25
2022-10-09T02:44:54.477Z,8.24
2022-10-09T02:45:54.468Z,8.22
2022-10-09T02:46:54.480Z,8.21
2022-10-09T02:47:54.456Z,8.21
2022-10-09T02:48:54.426Z,8.20
2022-10-09T02:49:54.427Z,8.18
2022-10-09T02:50:54.398Z,8.14
2022-10-09T02:51:54.437Z,8.18
2022-10-09T02:52:54.376Z,8.20
2022-10-09T02:53:54.354Z,8.14
2022-10-09T02:54:54.353Z,8.17
2022-10-09T02:55:54.352Z,8.18
2022-10-09T02:56:54.364Z,8.20
2022-10-09T02:57:54.320Z,8.20
2022-10-09T02:58:54.303Z,8.17
2022-10-09T02:59:54.304Z,8.18
2022-10-09T03:00:54.275Z,8.17
2022-10-09T03:01:54.342Z,8.12
2022-10-09T03:02:54.381Z,8.13
2022-10-09T03:03:54.243Z,8.12
2022-10-09T03:04:54.228Z,8.12
2022-10-09T03:05:54.223Z,8.10
2022-10-09T03:06:54.250Z,8.13
2022-10-09T03:07:54.195Z,8.14
2022-10-09T03:08:54.191Z,8.13
2022-10-09T03:09:54.181Z,8.09
2022-10-09T03:10:54.151Z,8.07
2022-10-09T03:11:54.148Z,8.06
2022-10-09T03:12:54.130Z,8.03
2022-10-09T03:13:54.121Z,8.00
2022-10-09T03:14:54.101Z,7.99
2022-10-09T03:15:54.138Z,7.95
2022-10-09T03:16:54.078Z,7.94
2022-10-09T03:17:54.068Z,7.96
2022-10-09T03:18:54.064Z,7.96
2022-10-09T03:19:54.052Z,7.95
2022-10-09T03:20:54.029Z,7.94
2022-10-09T03:21:54.031Z,7.92
2022-10-09T03:22:54.007Z,7.91
2022-10-09T03:23:53.998Z,7.89
2022-10-09T03:24:53.979Z,7.88
2022-10-09T03:25:53.967Z,7.86
2022-10-09T03:26:53.965Z,7.86
2022-10-09T03:27:53.950Z,7.85
2022-10-09T03:28:54.006Z,7.86
2022-10-09T03:29:53.928Z,7.88
2022-10-09T03:30:54.032Z,7.92
2022-10-09T03:31:54.002Z,7.91
2022-10-09T03:32:53.903Z,7.88
2022-10-09T03:33:53.867Z,7.88
2022-10-09T03:34:53.865Z,7.88
2022-10-09T03:35:53.836Z,7.86
2022-10-09T03:36:53.844Z,7.85
2022-10-09T03:37:53.814Z,7.85
2022-10-09T03:38:53.814Z,7.82
2022-10-09T03:39:53.878Z,7.86
2022-10-09T03:40:53.784Z,7.85
2022-10-09T03:41:53.771Z,7.86
2022-10-09T03:42:53.765Z,7.88
2022-10-09T03:43:53.743Z,7.86
2022-10-09T03:44:53.735Z,7.85
2022-10-09T03:45:53.743Z,7.85
2022-10-09T03:46:53.767Z,7.84
2022-10-09T03:47:53.700Z,7.84
2022-10-09T03:48:53.681Z,7.86
2022-10-09T03:49:53.710Z,7.88
2022-10-09T03:50:53.650Z,7.85
2022-10-09T03:51:53.664Z,7.86
2022-10-09T03:52:53.630Z,7.84
2022-10-09T03:53:53.613Z,7.81
2022-10-09T03:54:53.614Z,7.82
2022-10-09T03:55:53.698Z,7.85
2022-10-09T03:56:53.590Z,7.88
2022-10-09T03:57:53.569Z,7.89
2022-10-09T03:58:53.543Z,7.89
2022-10-09T03:59:53.538Z,7.91
2022-10-09T04:00:53.554Z,7.91
2022-10-09T04:01:53.529Z,7.89
2022-10-09T04:02:53.846Z,7.92
2022-10-09T04:03:53.494Z,7.92
2022-10-09T04:04:53.489Z,7.92
2022-10-09T04:05:53.468Z,7.89
2022-10-09T04:06:53.460Z,7.88
2022-10-09T04:07:53.942Z,7.91
2022-10-09T04:08:53.430Z,7.91
2022-10-09T04:09:53.417Z,7.89
2022-10-09T04:10:53.412Z,7.89
2022-10-09T04:11:53.386Z,7.88
2022-10-09T04:12:53.386Z,7.86
2022-10-09T04:13:53.368Z,7.84
2022-10-09T04:14:53.359Z,7.81
2022-10-09T04:15:53.385Z,7.79
2022-10-09T04:16:53.337Z,7.81
2022-10-09T04:17:53.329Z,7.81
2022-10-09T04:18:53.327Z,7.79
2022-10-09T04:19:53.337Z,7.79
2022-10-09T04:20:53.301Z,7.79
2022-10-09T04:21:53.275Z,7.79
2022-10-09T04:22:53.276Z,7.82
2022-10-09T04:23:53.242Z,7.79
2022-10-09T04:24:53.224Z,7.79
2022-10-09T04:25:53.239Z,7.79
2022-10-09T04:26:53.231Z,7.81
2022-10-09T04:27:53.204Z,7.81
2022-10-09T04:28:53.175Z,7.77
2022-10-09T04:29:53.216Z,7.76
2022-10-09T04:30:53.161Z,7.76
2022-10-09T04:31:53.194Z,7.76
2022-10-09T04:32:53.132Z,7.73
2022-10-09T04:33:53.113Z,7.71
2022-10-09T04:34:53.101Z,7.71
2022-10-09T04:35:53.092Z,7.70
2022-10-09T04:36:53.119Z,7.67
2022-10-09T04:37:53.062Z,7.66
2022-10-09T04:38:53.052Z,7.63
2022-10-09T04:39:53.039Z,7.63
2022-10-09T04:40:53.038Z,7.63
2022-10-09T04:41:53.029Z,7.62
2022-10-09T04:42:53.021Z,7.62
2022-10-09T04:43:53.020Z,7.62
2022-10-09T04:44:52.980Z,7.58
2022-10-09T04:45:53.045Z,7.54
2022-10-09T04:46:52.978Z,7.54
2022-10-09T04:47:52.928Z,7.52
2022-10-09T04:48:52.972Z,7.51
2022-10-09T04:49:52.919Z,7.52
2022-10-09T04:50:52.960Z,7.55
2022-10-09T04:51:52.896Z,7.55
2022-10-09T04:52:53.147Z,7.55
2022-10-09T04:53:55.240Z,7.51
2022-10-09T04:54:53.057Z,7.54
2022-10-09T04:55:52.862Z,7.52
2022-10-09T04:56:52.833Z,7.52
2022-10-09T04:57:52.815Z,7.55
2022-10-09T04:58:52.810Z,7.54
2022-10-09T04:59:52.861Z,7.52
2022-10-09T05:00:52.863Z,7.54
2022-10-09T05:01:52.812Z,7.55
2022-10-09T05:02:52.746Z,7.58
2022-10-09T05:03:52.743Z,7.58
2022-10-09T05:04:52.747Z,7.57
2022-10-09T05:05:52.713Z,7.58
2022-10-09T05:06:52.713Z,7.58
2022-10-09T05:07:52.696Z,7.58
2022-10-09T05:08:52.695Z,7.60
2022-10-09T05:09:52.671Z,7.58
2022-10-09T05:10:52.653Z,7.58
2022-10-09T05:11:52.637Z,7.58
2022-10-09T05:12:52.626Z,7.57
2022-10-09T05:13:52.632Z,7.54
2022-10-09T05:14:52.592Z,7.54
2022-10-09T05:15:52.633Z,7.51
2022-10-09T05:17:12.394Z,7.50
2022-10-09T05:17:53.561Z,7.48
2022-10-09T05:18:52.555Z,7.50
2022-10-09T05:19:52.542Z,7.51
2022-10-09T05:20:52.519Z,7.51
2022-10-09T05:21:52.509Z,7.52
2022-10-09T05:22:52.843Z,7.51
2022-10-09T05:23:52.490Z,7.54
2022-10-09T05:24:52.472Z,7.52
2022-10-09T05:25:52.462Z,7.52
2022-10-09T05:26:52.453Z,7.51
2022-10-09T05:27:52.442Z,7.51
2022-10-09T05:28:52.512Z,7.47
2022-10-09T05:29:52.400Z,7.47
2022-10-09T05:30:52.418Z,7.45
2022-10-09T05:31:52.499Z,7.42
2022-10-09T05:32:52.569Z,7.44
2022-10-09T05:33:52.398Z,7.44
2022-10-09T05:34:52.371Z,7.48
2022-10-09T05:35:52.348Z,7.48
2022-10-09T05:36:52.356Z,7.52
2022-10-09T05:37:53.269Z,7.51
2022-10-09T05:38:52.297Z,7.52
2022-10-09T05:39:52.297Z,7.54
2022-10-09T05:40:52.309Z,7.52
2022-10-09T05:41:52.265Z,7.54
2022-10-09T05:42:52.286Z,7.54
2022-10-09T05:43:52.239Z,7.52
2022-10-09T05:44:52.207Z,7.54
2022-10-09T05:45:52.245Z,7.55
2022-10-09T05:46:52.195Z,7.55
2022-10-09T05:47:52.174Z,7.55
2022-10-09T05:48:52.159Z,7.54
2022-10-09T05:49:52.163Z,7.54
2022-10-09T05:50:52.134Z,7.54
2022-10-09T05:51:52.150Z,7.54
2022-10-09T05:52:52.265Z,7.57
2022-10-09T05:53:52.096Z,7.58
2022-10-09T05:54:52.144Z,7.60
2022-10-09T05:55:52.074Z,7.62
2022-10-09T05:56:52.070Z,7.58
2022-10-09T05:57:52.050Z,7.57
2022-10-09T05:58:52.053Z,7.57
2022-10-09T05:59:52.032Z,7.54
2022-10-09T06:00:52.226Z,7.54
2022-10-09T06:01:52.109Z,7.55
2022-10-09T06:02:52.586Z,7.57
2022-10-09T06:03:51.969Z,7.57
2022-10-09T06:04:51.952Z,7.57
2022-10-09T06:05:52.001Z,7.58
2022-10-09T06:06:51.943Z,7.58
2022-10-09T06:07:52.010Z,7.62
2022-10-09T06:08:52.667Z,7.63
2022-10-09T06:09:52.889Z,7.63
2022-10-09T06:10:51.911Z,7.63
2022-10-09T06:11:51.889Z,7.66
2022-10-09T06:12:52.093Z,7.67
2022-10-09T06:13:51.879Z,7.69
2022-10-09T06:14:51.864Z,7.67
2022-10-09T06:15:51.906Z,7.70
2022-10-09T06:16:51.903Z,7.74
2022-10-09T06:17:51.807Z,7.76
2022-10-09T06:18:51.790Z,7.76
2022-10-09T06:19:52.477Z,7.77
2022-10-09T06:20:51.775Z,7.79
2022-10-09T06:21:51.767Z,7.81
2022-10-09T06:22:51.895Z,7.84
2022-10-09T06:23:51.735Z,7.84
2022-10-09T06:24:51.716Z,7.85
2022-10-09T06:25:51.716Z,7.86
2022-10-09T06:26:51.707Z,7.89
2022-10-09T06:27:51.690Z,7.91
2022-10-09T06:28:51.696Z,7.92
2022-10-09T06:29:51.658Z,7.94
2022-10-09T06:30:51.704Z,7.94
2022-10-09T06:31:51.643Z,8.06
2022-10-09T06:32:51.987Z,8.10
2022-10-09T06:33:51.615Z,8.17
2022-10-09T06:34:51.586Z,8.24
2022-10-09T06:35:51.586Z,8.34
2022-10-09T06:36:51.583Z,8.36
2022-10-09T06:37:51.554Z,8.37
2022-10-09T06:38:51.541Z,8.39
2022-10-09T06:39:51.542Z,8.37
2022-10-09T06:40:51.513Z,8.32
2022-10-09T06:41:51.512Z,8.34
2022-10-09T06:42:51.785Z,8.37
2022-10-09T06:43:51.474Z,8.40
2022-10-09T06:44:51.467Z,8.50
2022-10-09T06:45:51.540Z,8.54
2022-10-09T06:46:51.442Z,8.58
2022-10-09T06:47:51.440Z,8.63
2022-10-09T06:48:51.411Z,8.64
2022-10-09T06:49:51.413Z,8.65
2022-10-09T06:50:51.395Z,8.68
2022-10-09T06:51:51.374Z,8.73
2022-10-09T06:52:51.852Z,8.75
2022-10-09T06:53:51.339Z,8.71
2022-10-09T06:54:51.341Z,8.71
2022-10-09T06:55:51.332Z,8.73
2022-10-09T06:56:51.512Z,8.79
2022-10-09T06:57:51.300Z,8.80
2022-10-09T06:58:51.279Z,8.86
2022-10-09T06:59:51.266Z,8.89
2022-10-09T07:00:51.310Z,8.93
2022-10-09T07:01:51.308Z,8.93
2022-10-09T07:02:51.637Z,8.96
2022-10-09T07:03:51.209Z,8.94
2022-10-09T07:04:51.436Z,8.96
2022-10-09T07:05:51.196Z,8.97
2022-10-09T07:06:51.194Z,8.97
2022-10-09T07:07:51.176Z,8.98
2022-10-09T07:08:51.154Z,9.03
2022-10-09T07:09:51.295Z,9.06
2022-10-09T07:10:51.120Z,9.10
2022-10-09T07:11:51.130Z,9.13
2022-10-09T07:12:51.546Z,9.16
2022-10-09T07:13:51.114Z,9.22
2022-10-09T07:14:51.075Z,9.23
2022-10-09T07:15:51.120Z,9.24
2022-10-09T07:16:51.056Z,9.30
2022-10-09T07:17:51.062Z,9.37
2022-10-09T07:18:51.022Z,9.40
2022-10-09T07:19:51.054Z,9.40
2022-10-09T07:20:51.017Z,9.44
2022-10-09T07:21:51.035Z,9.41
2022-10-09T07:22:51.500Z,9.42
2022-10-09T07:23:51.012Z,9.44
2022-10-09T07:24:50.966Z,9.49
2022-10-09T07:25:50.933Z,9.50
2022-10-09T07:26:50.923Z,9.49
2022-10-09T07:27:50.963Z,9.50
2022-10-09T07:28:50.953Z,9.55
2022-10-09T07:29:50.882Z,9.58
2022-10-09T07:30:51.279Z,9.59
2022-10-09T07:31:50.880Z,9.60
2022-10-09T07:32:51.499Z,9.62
2022-10-09T07:33:50.873Z,9.63
2022-10-09T07:34:50.851Z,9.67
2022-10-09T07:35:50.801Z,9.68
2022-10-09T07:36:51.036Z,9.71
2022-10-09T07:37:50.780Z,9.74
2022-10-09T07:38:50.775Z,9.75
2022-10-09T07:39:50.748Z,9.77
2022-10-09T07:40:50.746Z,9.80
2022-10-09T07:41:50.721Z,9.81
2022-10-09T07:42:51.162Z,9.83
2022-10-09T07:43:50.727Z,9.85
2022-10-09T07:44:50.688Z,9.83
2022-10-09T07:45:51.904Z,9.83
2022-10-09T07:46:50.644Z,9.86
2022-10-09T07:47:50.774Z,9.89
2022-10-09T07:48:50.812Z,9.91
2022-10-09T07:49:50.615Z,9.95
2022-10-09T07:50:50.602Z,9.96
2022-10-09T07:51:51.298Z,10.01
2022-10-09T07:52:51.213Z,10.04
2022-10-09T07:53:50.657Z,10.07
2022-10-09T07:54:50.557Z,10.10
2022-10-09T07:55:50.563Z,10.13
2022-10-09T07:56:50.533Z,10.17
2022-10-09T07:57:51.417Z,10.20
2022-10-09T07:58:50.506Z,10.26
2022-10-09T07:59:50.486Z,10.31
2022-10-09T08:00:50.468Z,10.34
2022-10-09T08:01:50.496Z,10.35
2022-10-09T08:02:50.894Z,10.34
2022-10-09T08:03:50.454Z,10.36
2022-10-09T08:04:50.415Z,10.39
2022-10-09T08:05:50.404Z,10.39
2022-10-09T08:06:50.389Z,10.43
2022-10-09T08:07:50.386Z,10.43
2022-10-09T08:08:50.345Z,10.47
2022-10-09T08:09:50.342Z,10.51
2022-10-09T08:10:50.340Z,10.52
2022-10-09T08:11:50.312Z,10.58
2022-10-09T08:12:50.732Z,10.60
2022-10-09T08:13:50.295Z,10.62
2022-10-09T08:14:50.270Z,10.63
2022-10-09T08:15:50.326Z,10.63
2022-10-09T08:16:50.312Z,10.66
2022-10-09T08:17:50.241Z,10.72
2022-10-09T08:18:50.251Z,10.75
2022-10-09T08:19:50.226Z,10.76
2022-10-09T08:20:50.202Z,10.81
2022-10-09T08:21:50.205Z,10.84
2022-10-09T08:22:50.503Z,10.87
2022-10-09T08:23:50.170Z,10.91
2022-10-09T08:24:50.155Z,11.06
2022-10-09T08:25:50.238Z,11.11
2022-10-09T08:26:50.121Z,11.20
2022-10-09T08:27:50.122Z,11.20
2022-10-09T08:28:50.193Z,11.20
2022-10-09T08:29:50.080Z,11.28
2022-10-09T08:30:50.235Z,11.30
2022-10-09T08:31:50.061Z,11.30
2022-10-09T08:32:50.531Z,11.31
2022-10-09T08:33:50.040Z,11.30
2022-10-09T08:34:50.036Z,11.35
2022-10-09T08:35:50.036Z,11.44
2022-10-09T08:36:49.991Z,11.45
2022-10-09T08:37:50.139Z,11.57
2022-10-09T08:38:49.957Z,11.60
2022-10-09T08:39:49.948Z,11.63
2022-10-09T08:40:49.967Z,11.67
2022-10-09T08:41:49.929Z,11.82
2022-10-09T08:42:50.166Z,11.93
2022-10-09T08:43:49.898Z,11.94
2022-10-09T08:44:49.890Z,11.90
2022-10-09T08:45:49.887Z,12.03
2022-10-09T08:46:49.925Z,12.05
2022-10-09T08:47:49.867Z,12.05
2022-10-09T08:48:49.857Z,12.01
2022-10-09T08:49:49.827Z,12.05
2022-10-09T08:50:49.808Z,12.08
2022-10-09T08:51:49.794Z,12.15
2022-10-09T08:52:50.305Z,12.19
2022-10-09T08:53:50.691Z,12.19
2022-10-09T08:54:49.782Z,12.21
2022-10-09T08:55:50.936Z,12.19
2022-10-09T08:56:50.006Z,12.18
2022-10-09T08:57:49.756Z,12.16
2022-10-09T08:58:49.706Z,12.18
2022-10-09T08:59:49.767Z,12.21
2022-10-09T09:00:50.788Z,12.29
2022-10-09T09:01:49.740Z,12.26
2022-10-09T09:02:49.952Z,12.29
2022-10-09T09:03:49.666Z,12.29
2022-10-09T09:04:54.434Z,12.31
2022-10-09T09:05:50.664Z,12.33
2022-10-09T09:06:49.626Z,12.36
2022-10-09T09:07:49.704Z,12.36
2022-10-09T09:08:49.668Z,12.38
2022-10-09T09:09:49.565Z,12.41
2022-10-09T09:10:49.542Z,12.43
2022-10-09T09:11:49.543Z,12.48
2022-10-09T09:12:49.802Z,12.51
2022-10-09T09:13:49.515Z,12.52
2022-10-09T09:14:49.522Z,12.52
2022-10-09T09:15:50.522Z,12.55
2022-10-09T09:16:49.793Z,12.58
2022-10-09T09:17:49.491Z,12.61
2022-10-09T09:18:49.441Z,12.62
2022-10-09T09:19:50.099Z,12.63
2022-10-09T09:20:49.427Z,12.67
2022-10-09T09:21:49.437Z,12.66
2022-10-09T09:22:49.745Z,12.70
2022-10-09T09:23:49.542Z,12.74
2022-10-09T09:24:49.396Z,12.80
2022-10-09T09:25:49.383Z,12.85
2022-10-09T09:26:49.335Z,12.87
2022-10-09T09:27:49.362Z,12.89
2022-10-09T09:28:49.425Z,12.92
2022-10-09T09:29:49.298Z,12.92
2022-10-09T09:30:49.356Z,12.92
2022-10-09T09:31:49.351Z,12.92
2022-10-09T09:32:49.533Z,12.91
2022-10-09T09:33:49.248Z,12.91
2022-10-09T09:34:49.249Z,12.95
2022-10-09T09:35:49.290Z,12.99
2022-10-09T09:36:49.247Z,13.01
2022-10-09T09:37:49.207Z,13.03
2022-10-09T09:39:25.219Z,13.07
2022-10-09T09:40:50.248Z,13.17
2022-10-09T09:41:49.138Z,13.21
2022-10-09T09:42:49.443Z,13.24
2022-10-09T09:43:49.106Z,13.28
2022-10-09T09:44:49.087Z,13.28
2022-10-09T09:45:49.086Z,13.35
2022-10-09T09:46:49.205Z,13.35
2022-10-09T09:47:49.310Z,13.36
2022-10-09T09:48:49.046Z,13.39
2022-10-09T09:49:49.042Z,13.43
2022-10-09T09:50:59.885Z,13.43
2022-10-09T09:51:50.024Z,13.47
2022-10-09T09:52:49.043Z,13.51
2022-10-09T09:53:49.023Z,13.54
2022-10-09T09:54:49.014Z,13.55
2022-10-09T09:55:48.954Z,13.54
2022-10-09T09:57:50.278Z,13.55
2022-10-09T09:58:48.937Z,13.61
2022-10-09T09:59:48.969Z,13.63
2022-10-09T10:00:48.961Z,13.66
2022-10-09T10:01:48.939Z,13.69
2022-10-09T10:02:49.156Z,13.72
2022-10-09T10:03:48.858Z,13.73
2022-10-09T10:04:48.859Z,13.80
2022-10-09T10:05:48.864Z,13.83
2022-10-09T10:06:48.843Z,13.86
2022-10-09T10:07:48.846Z,13.87
2022-10-09T10:08:48.795Z,13.90
2022-10-09T10:09:48.772Z,13.96
2022-10-09T10:10:48.763Z,13.96
2022-10-09T10:11:48.965Z,13.99
2022-10-09T10:12:48.957Z,14.04
2022-10-09T10:13:48.723Z,14.06
2022-10-09T10:14:48.713Z,14.08
2022-10-09T10:15:48.720Z,14.08
2022-10-09T10:16:48.694Z,14.06
2022-10-09T10:17:48.682Z,14.06
2022-10-09T10:18:48.662Z,14.08
2022-10-09T10:19:48.653Z,14.06
2022-10-09T10:20:49.193Z,14.09
2022-10-09T10:21:48.622Z,14.11
2022-10-09T10:22:48.859Z,14.19
2022-10-09T10:23:48.639Z,14.23
2022-10-09T10:24:48.584Z,14.29
2022-10-09T10:25:48.568Z,14.30
2022-10-09T10:26:48.568Z,14.30
2022-10-09T10:27:48.789Z,14.26
2022-10-09T10:28:48.538Z,14.26
2022-10-09T10:29:48.518Z,14.26
2022-10-09T10:30:48.539Z,14.24
2022-10-09T10:31:48.501Z,14.21
2022-10-09T10:32:48.529Z,14.20
2022-10-09T10:33:48.454Z,14.20
2022-10-09T10:34:48.589Z,14.26
2022-10-09T10:35:48.429Z,14.31
2022-10-09T10:36:48.419Z,14.38
2022-10-09T10:37:48.707Z,14.38
2022-10-09T10:38:48.388Z,14.41
2022-10-09T10:39:48.380Z,14.45
2022-10-09T10:40:48.368Z,14.48
2022-10-09T10:41:48.361Z,14.48
2022-10-09T10:42:48.370Z,14.52
2022-10-09T10:43:48.348Z,14.54
2022-10-09T10:44:48.998Z,14.59
2022-10-09T10:45:48.298Z,14.64
2022-10-09T10:46:48.317Z,14.74
2022-10-09T10:47:48.614Z,14.80
2022-10-09T10:48:48.544Z,14.86
2022-10-09T10:49:48.254Z,14.90
2022-10-09T10:50:48.249Z,14.95
2022-10-09T10:51:48.259Z,14.97
2022-10-09T10:52:49.490Z,14.98
2022-10-09T10:53:49.130Z,15.00
2022-10-09T10:54:48.707Z,15.04
2022-10-09T10:55:48.230Z,15.01
2022-10-09T10:56:48.169Z,14.97
2022-10-09T10:57:48.411Z,14.97
2022-10-09T10:58:48.136Z,14.98
2022-10-09T10:59:48.316Z,15.03
2022-10-09T11:00:48.236Z,15.12
2022-10-09T11:01:48.086Z,15.19
2022-10-09T11:02:48.503Z,15.23
2022-10-09T11:03:48.115Z,15.30
2022-10-09T11:04:48.058Z,15.33
2022-10-09T11:05:48.098Z,15.40
2022-10-09T11:06:48.034Z,15.43
2022-10-09T11:07:48.028Z,15.49
2022-10-09T11:08:48.038Z,15.52
2022-10-09T11:09:48.060Z,15.56
2022-10-09T11:10:48.010Z,15.58
2022-10-09T11:11:48.014Z,15.59
2022-10-09T11:12:48.645Z,15.60
2022-10-09T11:13:47.937Z,15.64
2022-10-09T11:14:49.302Z,15.62
2022-10-09T11:15:47.907Z,15.59
2022-10-09T11:16:47.970Z,15.60
2022-10-09T11:17:47.921Z,15.64
2022-10-09T11:18:47.872Z,15.66
2022-10-09T11:19:47.861Z,15.62
2022-10-09T11:20:47.924Z,15.53
2022-10-09T11:21:47.864Z,15.46
2022-10-09T11:22:48.155Z,15.41
2022-10-09T11:23:47.802Z,15.44
2022-10-09T11:24:47.803Z,15.51
2022-10-09T11:25:48.063Z,15.52
2022-10-09T11:26:47.954Z,15.51
2022-10-09T11:27:47.766Z,15.51
2022-10-09T11:28:47.804Z,15.41
2022-10-09T11:29:47.717Z,15.44
2022-10-09T11:30:47.736Z,15.44
2022-10-09T11:31:47.757Z,15.51
2022-10-09T11:32:47.702Z,15.52
2022-10-09T11:33:54.702Z,15.51
2022-10-09T11:34:54.729Z,15.53
2022-10-09T11:35:47.668Z,15.55
2022-10-09T11:36:48.372Z,15.53
2022-10-09T11:37:47.980Z,15.48
2022-10-09T11:38:47.898Z,15.46
2022-10-09T11:39:47.662Z,15.49
2022-10-09T11:40:47.605Z,15.41
2022-10-09T11:41:47.607Z,15.38
2022-10-09T11:42:50.343Z,15.40
2022-10-09T11:43:47.793Z,15.40
2022-10-09T11:44:47.639Z,15.35
2022-10-09T11:45:47.587Z,15.31
2022-10-09T11:46:47.492Z,15.20
2022-10-09T11:47:47.859Z,15.15
2022-10-09T11:48:47.529Z,15.05
2022-10-09T11:49:47.472Z,14.97
2022-10-09T11:50:47.485Z,14.98
2022-10-09T11:51:47.479Z,15.05
2022-10-09T11:52:47.430Z,15.13
2022-10-09T11:53:47.437Z,15.23
2022-10-09T11:54:47.453Z,15.30
2022-10-09T11:55:47.396Z,15.37
2022-10-09T11:56:47.380Z,15.48
2022-10-09T11:57:47.793Z,15.58
2022-10-09T11:58:48.290Z,15.67
2022-10-09T11:59:48.208Z,15.70
2022-10-09T12:00:48.174Z,15.68
2022-10-09T12:01:47.337Z,15.64
2022-10-09T12:02:47.413Z,15.60
2022-10-09T12:03:47.306Z,15.62
2022-10-09T12:04:55.915Z,15.62
2022-10-09T12:05:48.298Z,15.68
2022-10-09T12:06:47.247Z,15.74
2022-10-09T12:07:47.254Z,15.80
2022-10-09T12:08:47.278Z,15.86
2022-10-09T12:09:47.214Z,15.93
2022-10-09T12:10:47.214Z,15.98
2022-10-09T12:11:47.318Z,16.03
2022-10-09T12:12:47.518Z,16.11
2022-10-09T12:13:47.232Z,16.22
2022-10-09T12:14:47.229Z,16.26
2022-10-09T12:15:47.132Z,16.33
2022-10-09T12:16:47.209Z,16.42
2022-10-09T12:17:47.106Z,16.47
2022-10-09T12:18:47.134Z,16.47
2022-10-09T12:19:47.075Z,16.47
2022-10-09T12:20:47.063Z,16.40
2022-10-09T12:21:47.053Z,16.41
2022-10-09T12:23:07.181Z,16.30
2022-10-09T12:23:48.025Z,16.18
2022-10-09T12:24:47.006Z,16.13
2022-10-09T12:25:47.007Z,16.06
2022-10-09T12:26:47.000Z,15.95
2022-10-09T12:27:46.968Z,15.89
2022-10-09T12:28:47.032Z,15.86
2022-10-09T12:29:46.951Z,15.80
2022-10-09T12:30:47.881Z,15.84
2022-10-09T12:31:46.943Z,15.88
2022-10-09T12:32:47.366Z,15.91
2022-10-09T12:33:46.901Z,15.89
2022-10-09T12:34:46.904Z,15.93
2022-10-09T12:35:46.883Z,15.98
2022-10-09T12:36:46.913Z,16.03
2022-10-09T12:37:46.841Z,16.08
2022-10-09T12:38:46.833Z,16.08
2022-10-09T12:39:46.815Z,16.08
2022-10-09T12:40:47.295Z,16.10
2022-10-09T12:41:46.830Z,16.07
2022-10-09T12:42:47.326Z,16.04
2022-10-09T12:43:46.806Z,16.04
2022-10-09T12:44:46.740Z,16.10
2022-10-09T12:45:46.784Z,16.13
2022-10-09T12:46:46.736Z,16.13
2022-10-09T12:47:46.705Z,16.08
2022-10-09T12:48:46.723Z,16.08
2022-10-09T12:49:46.758Z,16.07
2022-10-09T12:50:47.013Z,16.03
2022-10-09T12:51:46.662Z,16.03
2022-10-09T12:52:46.984Z,16.07
2022-10-09T12:53:46.634Z,16.10
2022-10-09T12:54:46.642Z,16.14
2022-10-09T12:55:46.616Z,16.23
2022-10-09T12:56:46.641Z,16.30
2022-10-09T12:57:46.625Z,16.33
2022-10-09T12:58:46.583Z,16.34
2022-10-09T12:59:46.562Z,16.36
2022-10-09T13:00:46.530Z,16.36
2022-10-09T13:01:46.708Z,16.42
2022-10-09T13:02:47.168Z,16.44
2022-10-09T13:03:46.572Z,16.42
2022-10-09T13:04:46.481Z,16.44
2022-10-09T13:05:47.215Z,16.42
2022-10-09T13:06:46.468Z,16.37
2022-10-09T13:07:48.457Z,16.33
2022-10-09T13:08:46.635Z,16.27
2022-10-09T13:09:46.431Z,16.14